sensor_id;sensor_type;location;lat;lon;timestamp;temperature;humidity
2202;DHT22;1107;48.654;9.250;2022-07-05T00:01:01;18.80;1.00
2202;DHT22;1107;48.654;9.250;2022-07-05T00:03:28;18.80;1.00
2202;DHT22;1107;48.654;9.250;2022-07-05T00:05:55;18.90;99.90
2202;DHT22;1107;48.654;9.250;2022-07-05T00:08:22;18.90;99.90
2202;DHT22;1107;48.654;9.250;2022-07-05T00:10:50;18.90;39.50
2202;DHT22;1107;48.654;9.250;2022-07-05T00:13:17;19.00;30.50
2202;DHT22;1107;48.654;9.250;2022-07-05T00:15:44;19.00;29.50
2202;DHT22;1107;48.654;9.250;2022-07-05T00:18:12;19.00;1.00
2202;DHT22;1107;48.654;9.250;2022-07-05T00:20:39;19.00;1.00
2202;DHT22;1107;48.654;9.250;2022-07-05T00:23:06;18.90;1.00
2202;DHT22;1107;48.654;9.250;2022-07-05T00:25:33;18.90;1.00
2202;DHT22;1107;48.654;9.250;2022-07-05T00:28:00;18.80;1.00
2202;DHT22;1107;48.654;9.250;2022-07-05T00:30:27;18.80;1.00
2202;DHT22;1107;48.654;9.250;2022-07-05T00:32:54;18.70;1.00
2202;DHT22;1107;48.654;9.250;2022-07-05T00:35:23;18.60;1.00
2202;DHT22;1107;48.654;9.250;2022-07-05T00:37:50;18.50;1.00
2202;DHT22;1107;48.654;9.250;2022-07-05T00:40:17;18.40;1.00
2202;DHT22;1107;48.654;9.250;2022-07-05T00:42:44;18.30;1.00
2202;DHT22;1107;48.654;9.250;2022-07-05T00:45:11;18.30;1.00
2202;DHT22;1107;48.654;9.250;2022-07-05T00:47:38;18.20;1.00
2202;DHT22;1107;48.654;9.250;2022-07-05T00:50:06;18.20;1.00
2202;DHT22;1107;48.654;9.250;2022-07-05T00:52:35;18.30;1.00
2202;DHT22;1107;48.654;9.250;2022-07-05T00:55:03;18.20;1.00
2202;DHT22;1107;48.654;9.250;2022-07-05T00:57:31;18.20;1.00
2202;DHT22;1107;48.654;9.250;2022-07-05T00:59:59;18.20;1.00
2202;DHT22;1107;48.654;9.250;2022-07-05T01:02:26;18.20;99.90
2202;DHT22;1107;48.654;9.250;2022-07-05T01:04:53;18.00;99.90
2202;DHT22;1107;48.654;9.250;2022-07-05T01:07:22;17.90;1.00
2202;DHT22;1107;48.654;9.250;2022-07-05T01:09:52;17.80;1.00
2202;DHT22;1107;48.654;9.250;2022-07-05T01:12:19;17.80;1.00
2202;DHT22;1107;48.654;9.250;2022-07-05T01:14:46;17.80;1.00
2202;DHT22;1107;48.654;9.250;2022-07-05T01:17:15;17.80;1.00
2202;DHT22;1107;48.654;9.250;2022-07-05T01:19:42;17.70;1.00
2202;DHT22;1107;48.654;9.250;2022-07-05T01:22:15;17.70;99.90
2202;DHT22;1107;48.654;9.250;2022-07-05T01:24:45;17.80;1.00
2202;DHT22;1107;48.654;9.250;2022-07-05T01:27:27;17.60;1.00
2202;DHT22;1107;48.654;9.250;2022-07-05T01:29:54;17.60;99.90
2202;DHT22;1107;48.654;9.250;2022-07-05T01:32:21;17.50;1.00
2202;DHT22;1107;48.654;9.250;2022-07-05T01:34:48;17.50;1.00
2202;DHT22;1107;48.654;9.250;2022-07-05T01:37:15;17.50;1.00
2202;DHT22;1107;48.654;9.250;2022-07-05T01:39:44;17.50;1.00
2202;DHT22;1107;48.654;9.250;2022-07-05T01:42:11;17.50;1.00
2202;DHT22;1107;48.654;9.250;2022-07-05T01:44:38;17.50;99.90
2202;DHT22;1107;48.654;9.250;2022-07-05T01:47:06;17.50;99.90
2202;DHT22;1107;48.654;9.250;2022-07-05T01:49:38;17.50;1.00
2202;DHT22;1107;48.654;9.250;2022-07-05T01:52:09;17.50;1.00
2202;DHT22;1107;48.654;9.250;2022-07-05T01:54:36;17.50;99.90
2202;DHT22;1107;48.654;9.250;2022-07-05T01:57:06;17.40;1.00
2202;DHT22;1107;48.654;9.250;2022-07-05T01:59:34;17.40;1.00
2202;DHT22;1107;48.654;9.250;2022-07-05T02:02:02;17.40;1.00
2202;DHT22;1107;48.654;9.250;2022-07-05T02:04:30;17.40;1.00
2202;DHT22;1107;48.654;9.250;2022-07-05T02:06:57;17.30;1.00
2202;DHT22;1107;48.654;9.250;2022-07-05T02:09:24;17.30;99.90
2202;DHT22;1107;48.654;9.250;2022-07-05T02:11:51;17.20;99.90
2202;DHT22;1107;48.654;9.250;2022-07-05T02:14:20;17.20;1.00
2202;DHT22;1107;48.654;9.250;2022-07-05T02:16:47;17.10;1.00
2202;DHT22;1107;48.654;9.250;2022-07-05T02:19:14;17.10;99.90
2202;DHT22;1107;48.654;9.250;2022-07-05T02:21:41;17.10;1.00
2202;DHT22;1107;48.654;9.250;2022-07-05T02:24:09;17.10;99.90
2202;DHT22;1107;48.654;9.250;2022-07-05T02:26:36;17.00;1.00
2202;DHT22;1107;48.654;9.250;2022-07-05T02:29:03;16.90;1.00
2202;DHT22;1107;48.654;9.250;2022-07-05T02:31:32;17.00;1.00
2202;DHT22;1107;48.654;9.250;2022-07-05T02:33:59;17.00;1.00
2202;DHT22;1107;48.654;9.250;2022-07-05T02:36:26;17.00;1.00
2202;DHT22;1107;48.654;9.250;2022-07-05T02:38:53;17.10;1.00
2202;DHT22;1107;48.654;9.250;2022-07-05T02:41:20;17.10;1.00
2202;DHT22;1107;48.654;9.250;2022-07-05T02:43:47;17.00;99.90
2202;DHT22;1107;48.654;9.250;2022-07-05T02:46:15;17.10;99.90
2202;DHT22;1107;48.654;9.250;2022-07-05T02:48:43;17.10;99.90
2202;DHT22;1107;48.654;9.250;2022-07-05T02:51:10;17.10;99.90
2202;DHT22;1107;48.654;9.250;2022-07-05T02:53:37;17.00;99.90
2202;DHT22;1107;48.654;9.250;2022-07-05T02:56:04;16.90;1.00
2202;DHT22;1107;48.654;9.250;2022-07-05T02:58:32;16.80;1.00
2202;DHT22;1107;48.654;9.250;2022-07-05T03:00:58;16.80;1.00
2202;DHT22;1107;48.654;9.250;2022-07-05T03:03:25;16.80;1.00
2202;DHT22;1107;48.654;9.250;2022-07-05T03:05:54;16.70;1.00
2202;DHT22;1107;48.654;9.250;2022-07-05T03:08:21;16.70;1.00
2202;DHT22;1107;48.654;9.250;2022-07-05T03:10:48;16.60;1.00
2202;DHT22;1107;48.654;9.250;2022-07-05T03:13:15;16.60;1.00
2202;DHT22;1107;48.654;9.250;2022-07-05T03:15:42;16.60;1.00
2202;DHT22;1107;48.654;9.250;2022-07-05T03:18:09;16.60;1.00
2202;DHT22;1107;48.654;9.250;2022-07-05T03:20:36;16.70;1.00
2202;DHT22;1107;48.654;9.250;2022-07-05T03:23:05;16.60;99.90
2202;DHT22;1107;48.654;9.250;2022-07-05T03:25:33;16.50;1.00
2202;DHT22;1107;48.654;9.250;2022-07-05T03:28:00;16.50;99.90
2202;DHT22;1107;48.654;9.250;2022-07-05T03:30:27;16.50;1.00
2202;DHT22;1107;48.654;9.250;2022-07-05T03:32:54;16.50;99.00
2202;DHT22;1107;48.654;9.250;2022-07-05T03:35:21;16.50;1.00
2202;DHT22;1107;48.654;9.250;2022-07-05T03:37:48;16.40;1.00
2202;DHT22;1107;48.654;9.250;2022-07-05T03:40:16;16.40;1.00
2202;DHT22;1107;48.654;9.250;2022-07-05T03:42:43;16.30;1.00
2202;DHT22;1107;48.654;9.250;2022-07-05T03:45:10;16.30;1.00
2202;DHT22;1107;48.654;9.250;2022-07-05T03:47:37;16.40;1.00
2202;DHT22;1107;48.654;9.250;2022-07-05T03:50:05;16.40;1.00
2202;DHT22;1107;48.654;9.250;2022-07-05T03:52:32;16.40;99.90
2202;DHT22;1107;48.654;9.250;2022-07-05T03:54:59;16.50;99.90
2202;DHT22;1107;48.654;9.250;2022-07-05T03:57:28;16.50;1.00
2202;DHT22;1107;48.654;9.250;2022-07-05T03:59:55;16.50;1.00
2202;DHT22;1107;48.654;9.250;2022-07-05T04:02:22;16.60;1.00
2202;DHT22;1107;48.654;9.250;2022-07-05T04:04:49;16.70;99.90
2202;DHT22;1107;48.654;9.250;2022-07-05T04:07:16;16.80;99.90
2202;DHT22;1107;48.654;9.250;2022-07-05T04:09:43;16.90;1.00
2202;DHT22;1107;48.654;9.250;2022-07-05T04:12:10;16.90;1.00
2202;DHT22;1107;48.654;9.250;2022-07-05T04:14:38;17.10;1.00
2202;DHT22;1107;48.654;9.250;2022-07-05T04:17:05;17.30;1.00
2202;DHT22;1107;48.654;9.250;2022-07-05T04:19:32;17.40;1.00
2202;DHT22;1107;48.654;9.250;2022-07-05T04:21:59;17.60;1.00
2202;DHT22;1107;48.654;9.250;2022-07-05T04:24:26;17.70;99.90
2202;DHT22;1107;48.654;9.250;2022-07-05T04:26:54;17.80;99.90
2202;DHT22;1107;48.654;9.250;2022-07-05T04:29:21;17.80;99.90
2202;DHT22;1107;48.654;9.250;2022-07-05T04:31:49;17.90;99.90
2202;DHT22;1107;48.654;9.250;2022-07-05T04:34:16;18.10;99.90
2202;DHT22;1107;48.654;9.250;2022-07-05T04:36:43;18.20;45.90
2202;DHT22;1107;48.654;9.250;2022-07-05T04:39:10;18.20;16.50
2202;DHT22;1107;48.654;9.250;2022-07-05T04:41:37;18.20;1.00
2202;DHT22;1107;48.654;9.250;2022-07-05T04:44:04;18.20;1.00
2202;DHT22;1107;48.654;9.250;2022-07-05T04:46:31;18.30;5.20
2202;DHT22;1107;48.654;9.250;2022-07-05T04:49:00;18.40;1.00
2202;DHT22;1107;48.654;9.250;2022-07-05T04:51:27;18.50;1.00
2202;DHT22;1107;48.654;9.250;2022-07-05T04:53:54;18.70;1.00
2202;DHT22;1107;48.654;9.250;2022-07-05T04:56:21;18.80;1.00
2202;DHT22;1107;48.654;9.250;2022-07-05T04:58:48;18.90;1.00
2202;DHT22;1107;48.654;9.250;2022-07-05T05:01:15;19.00;1.00
2202;DHT22;1107;48.654;9.250;2022-07-05T05:03:42;19.10;1.00
2202;DHT22;1107;48.654;9.250;2022-07-05T05:06:11;19.30;1.00
2202;DHT22;1107;48.654;9.250;2022-07-05T05:08:39;19.50;1.00
2202;DHT22;1107;48.654;9.250;2022-07-05T05:11:07;19.60;1.00
2202;DHT22;1107;48.654;9.250;2022-07-05T05:13:34;19.80;1.00
2202;DHT22;1107;48.654;9.250;2022-07-05T05:16:01;19.90;1.00
2202;DHT22;1107;48.654;9.250;2022-07-05T05:18:28;20.00;1.00
2202;DHT22;1107;48.654;9.250;2022-07-05T05:20:55;20.10;1.00
2202;DHT22;1107;48.654;9.250;2022-07-05T05:23:24;20.30;1.00
2202;DHT22;1107;48.654;9.250;2022-07-05T05:25:51;20.50;1.00
2202;DHT22;1107;48.654;9.250;2022-07-05T05:28:18;20.60;1.00
2202;DHT22;1107;48.654;9.250;2022-07-05T05:30:45;20.60;1.00
2202;DHT22;1107;48.654;9.250;2022-07-05T05:33:13;20.70;1.00
2202;DHT22;1107;48.654;9.250;2022-07-05T05:35:40;20.90;1.00
2202;DHT22;1107;48.654;9.250;2022-07-05T05:38:07;21.10;1.00
2202;DHT22;1107;48.654;9.250;2022-07-05T05:40:35;21.10;1.00
2202;DHT22;1107;48.654;9.250;2022-07-05T05:43:04;21.20;1.00
2202;DHT22;1107;48.654;9.250;2022-07-05T05:45:31;21.40;99.90
2202;DHT22;1107;48.654;9.250;2022-07-05T05:47:59;21.40;99.90
2202;DHT22;1107;48.654;9.250;2022-07-05T05:50:27;21.50;99.90
2202;DHT22;1107;48.654;9.250;2022-07-05T05:52:54;21.70;99.90
2202;DHT22;1107;48.654;9.250;2022-07-05T05:55:22;21.80;99.90
2202;DHT22;1107;48.654;9.250;2022-07-05T05:57:51;21.90;99.90
2202;DHT22;1107;48.654;9.250;2022-07-05T06:00:19;22.10;99.90
2202;DHT22;1107;48.654;9.250;2022-07-05T06:02:48;22.20;99.90
2202;DHT22;1107;48.654;9.250;2022-07-05T06:05:16;22.30;99.90
2202;DHT22;1107;48.654;9.250;2022-07-05T06:07:48;22.50;99.90
2202;DHT22;1107;48.654;9.250;2022-07-05T06:10:17;22.40;99.90
2202;DHT22;1107;48.654;9.250;2022-07-05T06:12:44;22.40;99.90
2202;DHT22;1107;48.654;9.250;2022-07-05T06:15:12;22.50;99.90
2202;DHT22;1107;48.654;9.250;2022-07-05T06:17:39;22.60;99.90
2202;DHT22;1107;48.654;9.250;2022-07-05T06:20:08;22.70;99.90
2202;DHT22;1107;48.654;9.250;2022-07-05T06:22:36;22.90;99.90
2202;DHT22;1107;48.654;9.250;2022-07-05T06:25:03;23.00;99.90
2202;DHT22;1107;48.654;9.250;2022-07-05T06:27:31;23.10;99.90
2202;DHT22;1107;48.654;9.250;2022-07-05T06:29:58;23.30;99.90
2202;DHT22;1107;48.654;9.250;2022-07-05T06:32:26;23.50;99.90
2202;DHT22;1107;48.654;9.250;2022-07-05T06:34:53;23.50;99.90
2202;DHT22;1107;48.654;9.250;2022-07-05T06:37:20;23.60;99.90
2202;DHT22;1107;48.654;9.250;2022-07-05T06:39:47;23.40;99.90
2202;DHT22;1107;48.654;9.250;2022-07-05T06:42:14;23.60;99.90
2202;DHT22;1107;48.654;9.250;2022-07-05T06:44:41;23.70;99.90
2202;DHT22;1107;48.654;9.250;2022-07-05T06:47:09;23.90;99.90
2202;DHT22;1107;48.654;9.250;2022-07-05T06:49:37;24.00;99.90
2202;DHT22;1107;48.654;9.250;2022-07-05T06:52:05;24.10;99.90
2202;DHT22;1107;48.654;9.250;2022-07-05T06:54:31;24.30;99.90
2202;DHT22;1107;48.654;9.250;2022-07-05T06:56:58;24.60;99.90
2202;DHT22;1107;48.654;9.250;2022-07-05T06:59:25;24.80;99.90
2202;DHT22;1107;48.654;9.250;2022-07-05T07:01:52;25.00;99.90
2202;DHT22;1107;48.654;9.250;2022-07-05T07:04:19;25.00;99.90
2202;DHT22;1107;48.654;9.250;2022-07-05T07:06:48;25.40;99.90
2202;DHT22;1107;48.654;9.250;2022-07-05T07:09:15;25.30;99.90
2202;DHT22;1107;48.654;9.250;2022-07-05T07:11:44;25.50;99.90
2202;DHT22;1107;48.654;9.250;2022-07-05T07:14:11;25.70;99.90
2202;DHT22;1107;48.654;9.250;2022-07-05T07:16:38;25.30;99.90
2202;DHT22;1107;48.654;9.250;2022-07-05T07:19:05;25.30;99.90
2202;DHT22;1107;48.654;9.250;2022-07-05T07:21:32;25.80;99.90
2202;DHT22;1107;48.654;9.250;2022-07-05T07:24:01;26.20;99.90
2202;DHT22;1107;48.654;9.250;2022-07-05T07:26:28;26.20;99.90
2202;DHT22;1107;48.654;9.250;2022-07-05T07:28:55;26.10;99.90
2202;DHT22;1107;48.654;9.250;2022-07-05T07:31:22;26.30;99.90
2202;DHT22;1107;48.654;9.250;2022-07-05T07:33:51;26.70;99.90
2202;DHT22;1107;48.654;9.250;2022-07-05T07:36:18;27.00;99.90
2202;DHT22;1107;48.654;9.250;2022-07-05T07:38:45;27.40;99.90
2202;DHT22;1107;48.654;9.250;2022-07-05T07:41:13;27.80;99.90
2202;DHT22;1107;48.654;9.250;2022-07-05T07:43:40;28.20;99.90
2202;DHT22;1107;48.654;9.250;2022-07-05T07:46:07;28.10;99.90
2202;DHT22;1107;48.654;9.250;2022-07-05T07:48:34;28.50;99.90
2202;DHT22;1107;48.654;9.250;2022-07-05T07:51:01;28.60;99.90
2202;DHT22;1107;48.654;9.250;2022-07-05T07:53:28;28.70;99.90
2202;DHT22;1107;48.654;9.250;2022-07-05T07:55:55;29.10;99.90
2202;DHT22;1107;48.654;9.250;2022-07-05T07:58:23;29.40;99.90
2202;DHT22;1107;48.654;9.250;2022-07-05T08:00:50;29.50;96.40
2202;DHT22;1107;48.654;9.250;2022-07-05T08:03:17;29.80;90.70
2202;DHT22;1107;48.654;9.250;2022-07-05T08:05:44;30.00;91.10
2202;DHT22;1107;48.654;9.250;2022-07-05T08:08:11;30.30;87.80
2202;DHT22;1107;48.654;9.250;2022-07-05T08:10:38;30.50;89.10
2202;DHT22;1107;48.654;9.250;2022-07-05T08:13:05;30.70;76.00
2202;DHT22;1107;48.654;9.250;2022-07-05T08:15:33;30.90;69.20
2202;DHT22;1107;48.654;9.250;2022-07-05T08:18:00;31.00;63.00
2202;DHT22;1107;48.654;9.250;2022-07-05T08:20:45;31.10;55.60
2202;DHT22;1107;48.654;9.250;2022-07-05T08:23:29;31.10;56.30
2202;DHT22;1107;48.654;9.250;2022-07-05T08:25:56;31.40;53.80
2202;DHT22;1107;48.654;9.250;2022-07-05T08:28:23;31.40;48.60
2202;DHT22;1107;48.654;9.250;2022-07-05T08:30:53;31.20;39.60
2202;DHT22;1107;48.654;9.250;2022-07-05T08:33:20;31.40;39.50
2202;DHT22;1107;48.654;9.250;2022-07-05T08:35:47;31.40;37.90
2202;DHT22;1107;48.654;9.250;2022-07-05T08:38:14;31.60;41.10
2202;DHT22;1107;48.654;9.250;2022-07-05T08:40:45;32.00;43.00
2202;DHT22;1107;48.654;9.250;2022-07-05T08:43:13;32.10;38.00
2202;DHT22;1107;48.654;9.250;2022-07-05T08:45:43;31.90;31.00
2202;DHT22;1107;48.654;9.250;2022-07-05T08:48:11;32.00;27.50
2202;DHT22;1107;48.654;9.250;2022-07-05T08:50:40;32.40;32.10
2202;DHT22;1107;48.654;9.250;2022-07-05T08:53:07;32.40;30.50
2202;DHT22;1107;48.654;9.250;2022-07-05T08:55:34;32.80;30.30
2202;DHT22;1107;48.654;9.250;2022-07-05T08:58:02;32.90;26.20
2202;DHT22;1107;48.654;9.250;2022-07-05T09:00:29;33.10;27.40
2202;DHT22;1107;48.654;9.250;2022-07-05T09:02:56;33.30;24.40
2202;DHT22;1107;48.654;9.250;2022-07-05T09:05:25;33.20;22.60
2202;DHT22;1107;48.654;9.250;2022-07-05T09:07:58;33.40;23.30
2202;DHT22;1107;48.654;9.250;2022-07-05T09:10:27;32.90;14.10
2202;DHT22;1107;48.654;9.250;2022-07-05T09:12:54;33.00;13.20
2202;DHT22;1107;48.654;9.250;2022-07-05T09:15:21;33.30;15.20
2202;DHT22;1107;48.654;9.250;2022-07-05T09:17:48;33.60;16.30
2202;DHT22;1107;48.654;9.250;2022-07-05T09:20:17;33.70;13.70
2202;DHT22;1107;48.654;9.250;2022-07-05T09:22:47;33.70;12.60
2202;DHT22;1107;48.654;9.250;2022-07-05T09:25:19;33.70;10.10
2202;DHT22;1107;48.654;9.250;2022-07-05T09:27:48;34.10;9.20
2202;DHT22;1107;48.654;9.250;2022-07-05T09:30:39;34.50;11.10
2202;DHT22;1107;48.654;9.250;2022-07-05T09:33:09;34.40;4.00
2202;DHT22;1107;48.654;9.250;2022-07-05T09:35:37;34.40;3.20
2202;DHT22;1107;48.654;9.250;2022-07-05T09:38:17;34.50;2.50
2202;DHT22;1107;48.654;9.250;2022-07-05T09:40:46;34.90;3.80
2202;DHT22;1107;48.654;9.250;2022-07-05T09:43:15;34.70;1.00
2202;DHT22;1107;48.654;9.250;2022-07-05T09:45:52;34.50;1.00
2202;DHT22;1107;48.654;9.250;2022-07-05T09:48:19;35.00;1.00
2202;DHT22;1107;48.654;9.250;2022-07-05T09:50:49;35.50;1.00
2202;DHT22;1107;48.654;9.250;2022-07-05T09:53:18;35.50;6.60
2202;DHT22;1107;48.654;9.250;2022-07-05T09:56:00;35.50;1.00
2202;DHT22;1107;48.654;9.250;2022-07-05T09:58:28;35.60;1.00
2202;DHT22;1107;48.654;9.250;2022-07-05T10:00:55;35.70;1.00
2202;DHT22;1107;48.654;9.250;2022-07-05T10:03:22;35.30;1.00
2202;DHT22;1107;48.654;9.250;2022-07-05T10:05:49;34.90;1.00
2202;DHT22;1107;48.654;9.250;2022-07-05T10:08:19;34.10;1.00
2202;DHT22;1107;48.654;9.250;2022-07-05T10:10:47;33.00;1.00
2202;DHT22;1107;48.654;9.250;2022-07-05T10:13:16;32.40;1.00
2202;DHT22;1107;48.654;9.250;2022-07-05T10:15:44;31.70;1.00
2202;DHT22;1107;48.654;9.250;2022-07-05T10:18:13;30.90;1.00
2202;DHT22;1107;48.654;9.250;2022-07-05T10:20:42;30.10;1.00
2202;DHT22;1107;48.654;9.250;2022-07-05T10:23:12;29.60;1.00
2202;DHT22;1107;48.654;9.250;2022-07-05T10:25:42;29.90;1.00
2202;DHT22;1107;48.654;9.250;2022-07-05T10:28:10;31.00;1.00
2202;DHT22;1107;48.654;9.250;2022-07-05T10:30:37;31.60;1.00
2202;DHT22;1107;48.654;9.250;2022-07-05T10:33:06;31.90;1.00
2202;DHT22;1107;48.654;9.250;2022-07-05T10:35:34;31.90;1.00
2202;DHT22;1107;48.654;9.250;2022-07-05T10:38:02;32.30;1.00
2202;DHT22;1107;48.654;9.250;2022-07-05T10:40:32;32.40;1.00
2202;DHT22;1107;48.654;9.250;2022-07-05T10:43:02;32.30;1.00
2202;DHT22;1107;48.654;9.250;2022-07-05T10:45:30;31.90;1.00
2202;DHT22;1107;48.654;9.250;2022-07-05T10:48:19;31.90;1.00
2202;DHT22;1107;48.654;9.250;2022-07-05T10:50:50;31.90;1.00
2202;DHT22;1107;48.654;9.250;2022-07-05T10:53:19;31.90;1.00
2202;DHT22;1107;48.654;9.250;2022-07-05T10:55:51;32.30;1.00
2202;DHT22;1107;48.654;9.250;2022-07-05T10:58:28;31.90;1.00
2202;DHT22;1107;48.654;9.250;2022-07-05T11:01:33;31.50;1.00
2202;DHT22;1107;48.654;9.250;2022-07-05T11:04:29;31.60;1.00
2202;DHT22;1107;48.654;9.250;2022-07-05T11:07:04;31.80;1.00
2202;DHT22;1107;48.654;9.250;2022-07-05T11:09:31;32.10;1.00
2202;DHT22;1107;48.654;9.250;2022-07-05T11:12:06;32.10;1.00
2202;DHT22;1107;48.654;9.250;2022-07-05T11:14:36;32.40;1.00
2202;DHT22;1107;48.654;9.250;2022-07-05T11:17:12;32.50;1.00
2202;DHT22;1107;48.654;9.250;2022-07-05T11:20:15;32.60;1.00
2202;DHT22;1107;48.654;9.250;2022-07-05T11:23:04;31.90;1.00
2202;DHT22;1107;48.654;9.250;2022-07-05T11:25:32;31.80;1.00
2202;DHT22;1107;48.654;9.250;2022-07-05T11:28:03;31.70;1.00
2202;DHT22;1107;48.654;9.250;2022-07-05T11:30:47;31.70;1.00
2202;DHT22;1107;48.654;9.250;2022-07-05T11:33:42;31.50;1.00
2202;DHT22;1107;48.654;9.250;2022-07-05T11:36:23;31.70;1.00
2202;DHT22;1107;48.654;9.250;2022-07-05T11:39:12;31.70;1.00
2202;DHT22;1107;48.654;9.250;2022-07-05T11:41:42;31.40;1.00
2202;DHT22;1107;48.654;9.250;2022-07-05T11:44:10;31.70;1.00
2202;DHT22;1107;48.654;9.250;2022-07-05T11:46:39;31.80;1.00
2202;DHT22;1107;48.654;9.250;2022-07-05T11:49:07;32.00;1.00
2202;DHT22;1107;48.654;9.250;2022-07-05T11:51:34;32.00;1.00
2202;DHT22;1107;48.654;9.250;2022-07-05T11:54:02;32.10;1.00
2202;DHT22;1107;48.654;9.250;2022-07-05T11:56:31;31.90;1.00
2202;DHT22;1107;48.654;9.250;2022-07-05T11:58:58;31.10;1.00
2202;DHT22;1107;48.654;9.250;2022-07-05T12:01:25;30.30;1.00
2202;DHT22;1107;48.654;9.250;2022-07-05T12:03:54;29.60;1.00
2202;DHT22;1107;48.654;9.250;2022-07-05T12:06:22;29.90;1.00
2202;DHT22;1107;48.654;9.250;2022-07-05T12:09:03;30.50;1.00
2202;DHT22;1107;48.654;9.250;2022-07-05T12:11:31;30.60;1.00
2202;DHT22;1107;48.654;9.250;2022-07-05T12:14:21;30.70;1.00
2202;DHT22;1107;48.654;9.250;2022-07-05T12:16:49;30.90;1.00
2202;DHT22;1107;48.654;9.250;2022-07-05T12:19:27;31.00;1.00
2202;DHT22;1107;48.654;9.250;2022-07-05T12:21:54;31.00;1.00
2202;DHT22;1107;48.654;9.250;2022-07-05T12:24:21;31.00;1.00
2202;DHT22;1107;48.654;9.250;2022-07-05T12:26:50;31.10;1.00
2202;DHT22;1107;48.654;9.250;2022-07-05T12:29:18;30.10;1.00
2202;DHT22;1107;48.654;9.250;2022-07-05T12:31:59;29.40;1.00
2202;DHT22;1107;48.654;9.250;2022-07-05T12:34:28;29.50;1.00
2202;DHT22;1107;48.654;9.250;2022-07-05T12:36:56;29.70;1.00
2202;DHT22;1107;48.654;9.250;2022-07-05T12:39:24;30.10;1.00
2202;DHT22;1107;48.654;9.250;2022-07-05T12:41:51;30.50;1.00
2202;DHT22;1107;48.654;9.250;2022-07-05T12:44:19;30.00;1.00
2202;DHT22;1107;48.654;9.250;2022-07-05T12:46:47;30.40;1.00
2202;DHT22;1107;48.654;9.250;2022-07-05T12:49:16;30.80;1.00
2202;DHT22;1107;48.654;9.250;2022-07-05T12:51:45;31.10;1.00
2202;DHT22;1107;48.654;9.250;2022-07-05T12:54:19;31.40;1.00
2202;DHT22;1107;48.654;9.250;2022-07-05T12:57:05;31.50;1.00
2202;DHT22;1107;48.654;9.250;2022-07-05T13:00:02;31.50;1.00
2202;DHT22;1107;48.654;9.250;2022-07-05T13:02:40;31.70;1.00
2202;DHT22;1107;48.654;9.250;2022-07-05T13:05:09;31.70;1.00
2202;DHT22;1107;48.654;9.250;2022-07-05T13:07:44;31.70;1.00
2202;DHT22;1107;48.654;9.250;2022-07-05T13:10:16;31.60;1.00
2202;DHT22;1107;48.654;9.250;2022-07-05T13:12:43;31.50;1.00
2202;DHT22;1107;48.654;9.250;2022-07-05T13:15:10;31.10;1.00
2202;DHT22;1107;48.654;9.250;2022-07-05T13:17:37;30.90;1.00
2202;DHT22;1107;48.654;9.250;2022-07-05T13:20:05;30.60;1.00
2202;DHT22;1107;48.654;9.250;2022-07-05T13:22:32;30.70;1.00
2202;DHT22;1107;48.654;9.250;2022-07-05T13:25:01;30.70;1.00
2202;DHT22;1107;48.654;9.250;2022-07-05T13:27:29;30.80;1.00
2202;DHT22;1107;48.654;9.250;2022-07-05T13:29:56;30.40;1.00
2202;DHT22;1107;48.654;9.250;2022-07-05T13:32:23;29.80;1.00
2202;DHT22;1107;48.654;9.250;2022-07-05T13:34:50;30.10;1.00
2202;DHT22;1107;48.654;9.250;2022-07-05T13:37:18;30.50;1.00
2202;DHT22;1107;48.654;9.250;2022-07-05T13:39:45;30.80;1.00
2202;DHT22;1107;48.654;9.250;2022-07-05T13:42:13;30.70;1.00
2202;DHT22;1107;48.654;9.250;2022-07-05T13:44:40;30.60;1.00
2202;DHT22;1107;48.654;9.250;2022-07-05T13:47:07;30.30;1.00
2202;DHT22;1107;48.654;9.250;2022-07-05T13:49:36;30.10;1.00
2202;DHT22;1107;48.654;9.250;2022-07-05T13:52:06;30.30;1.00
2202;DHT22;1107;48.654;9.250;2022-07-05T13:54:33;30.20;1.00
2202;DHT22;1107;48.654;9.250;2022-07-05T13:57:00;30.30;1.00
2202;DHT22;1107;48.654;9.250;2022-07-05T13:59:29;30.20;1.00
2202;DHT22;1107;48.654;9.250;2022-07-05T14:01:55;30.20;1.00
2202;DHT22;1107;48.654;9.250;2022-07-05T14:04:23;30.00;1.00
2202;DHT22;1107;48.654;9.250;2022-07-05T14:06:53;29.90;1.00
2202;DHT22;1107;48.654;9.250;2022-07-05T14:09:20;30.00;1.00
2202;DHT22;1107;48.654;9.250;2022-07-05T14:11:47;30.10;1.00
2202;DHT22;1107;48.654;9.250;2022-07-05T14:14:14;30.10;1.00
2202;DHT22;1107;48.654;9.250;2022-07-05T14:16:42;29.80;1.00
2202;DHT22;1107;48.654;9.250;2022-07-05T14:19:09;29.70;1.00
2202;DHT22;1107;48.654;9.250;2022-07-05T14:21:36;29.60;1.00
2202;DHT22;1107;48.654;9.250;2022-07-05T14:24:04;29.40;1.00
2202;DHT22;1107;48.654;9.250;2022-07-05T14:26:31;29.30;1.00
2202;DHT22;1107;48.654;9.250;2022-07-05T14:28:58;29.20;1.00
2202;DHT22;1107;48.654;9.250;2022-07-05T14:31:25;29.10;1.00
2202;DHT22;1107;48.654;9.250;2022-07-05T14:33:57;28.90;1.00
2202;DHT22;1107;48.654;9.250;2022-07-05T14:36:24;29.10;1.00
2202;DHT22;1107;48.654;9.250;2022-07-05T14:38:51;29.30;1.00
2202;DHT22;1107;48.654;9.250;2022-07-05T14:41:18;29.40;1.00
2202;DHT22;1107;48.654;9.250;2022-07-05T14:43:45;29.60;1.00
2202;DHT22;1107;48.654;9.250;2022-07-05T14:46:12;29.60;1.00
2202;DHT22;1107;48.654;9.250;2022-07-05T14:48:43;29.60;1.00
2202;DHT22;1107;48.654;9.250;2022-07-05T14:51:12;29.70;1.00
2202;DHT22;1107;48.654;9.250;2022-07-05T14:53:39;29.80;1.00
2202;DHT22;1107;48.654;9.250;2022-07-05T14:56:07;29.80;1.00
2202;DHT22;1107;48.654;9.250;2022-07-05T14:58:35;29.80;1.00
2202;DHT22;1107;48.654;9.250;2022-07-05T15:01:02;29.70;1.00
2202;DHT22;1107;48.654;9.250;2022-07-05T15:03:29;29.60;1.00
2202;DHT22;1107;48.654;9.250;2022-07-05T15:05:56;29.30;1.00
2202;DHT22;1107;48.654;9.250;2022-07-05T15:08:24;28.90;1.00
2202;DHT22;1107;48.654;9.250;2022-07-05T15:10:53;28.60;1.00
2202;DHT22;1107;48.654;9.250;2022-07-05T15:13:20;28.70;1.00
2202;DHT22;1107;48.654;9.250;2022-07-05T15:15:50;28.70;1.00
2202;DHT22;1107;48.654;9.250;2022-07-05T15:18:17;28.60;1.00
2202;DHT22;1107;48.654;9.250;2022-07-05T15:20:46;28.70;1.00
2202;DHT22;1107;48.654;9.250;2022-07-05T15:23:13;28.80;1.00
2202;DHT22;1107;48.654;9.250;2022-07-05T15:25:41;28.80;1.00
2202;DHT22;1107;48.654;9.250;2022-07-05T15:28:08;28.40;1.00
2202;DHT22;1107;48.654;9.250;2022-07-05T15:30:37;27.90;1.00
2202;DHT22;1107;48.654;9.250;2022-07-05T15:33:04;27.60;1.00
2202;DHT22;1107;48.654;9.250;2022-07-05T15:35:33;27.60;1.00
2202;DHT22;1107;48.654;9.250;2022-07-05T15:38:00;27.70;1.00
2202;DHT22;1107;48.654;9.250;2022-07-05T15:40:27;27.60;1.00
2202;DHT22;1107;48.654;9.250;2022-07-05T15:42:56;27.40;1.00
2202;DHT22;1107;48.654;9.250;2022-07-05T15:45:23;27.50;1.00
2202;DHT22;1107;48.654;9.250;2022-07-05T15:47:50;27.50;1.00
2202;DHT22;1107;48.654;9.250;2022-07-05T15:50:18;27.60;1.00
2202;DHT22;1107;48.654;9.250;2022-07-05T15:52:44;27.80;1.00
2202;DHT22;1107;48.654;9.250;2022-07-05T15:55:11;27.80;1.00
2202;DHT22;1107;48.654;9.250;2022-07-05T15:57:38;27.80;1.00
2202;DHT22;1107;48.654;9.250;2022-07-05T16:00:08;27.70;1.00
2202;DHT22;1107;48.654;9.250;2022-07-05T16:02:35;27.60;1.00
2202;DHT22;1107;48.654;9.250;2022-07-05T16:05:02;27.40;1.00
2202;DHT22;1107;48.654;9.250;2022-07-05T16:07:30;27.40;1.00
2202;DHT22;1107;48.654;9.250;2022-07-05T16:09:57;27.40;1.00
2202;DHT22;1107;48.654;9.250;2022-07-05T16:12:24;27.30;1.00
2202;DHT22;1107;48.654;9.250;2022-07-05T16:14:51;27.30;1.00
2202;DHT22;1107;48.654;9.250;2022-07-05T16:17:20;27.20;1.00
2202;DHT22;1107;48.654;9.250;2022-07-05T16:19:47;27.20;1.00
2202;DHT22;1107;48.654;9.250;2022-07-05T16:22:14;27.10;1.00